Lancaster, Missouri
Current Conditions -  °F | °C
As of 9:50 AM on Sunday 25 Jan 2015 (Local Time) from KTVK Reporting Station
Light Rain Light Rain  
Wind Chill: 23°   Ceiling: NA
Heat Index: 34°   Visibility: 9mi
Dew Point: 34°   Wind: 17mph
Humidity: 100%   Direction: 20°NNE
Pressure: 29.7"   Gusts: 23mph
Location:  40.52°N, 92.53°W
Report Text: KTVK 251550Z AUTO 02015G20KT 9SM -RA 01/01 A2970 RMK AO2
Loading
Personal Weather Stations






























Interactive Weather Map New forecast layout! Learn more

10-Day Weather Forecast

Advertisements
Track Severe Weather on mobile